createdAt,value
2022-12-14T00:01:56.145Z,92.01
2022-12-14T00:04:23.730Z,92.55
2022-12-14T00:06:51.362Z,93.01
2022-12-14T00:09:18.896Z,92.12
2022-12-14T00:11:46.426Z,91.85
2022-12-14T00:16:58.751Z,90.57
2022-12-14T00:19:26.346Z,90.30
2022-12-14T00:21:56.963Z,90.86
2022-12-14T00:24:24.410Z,87.20
2022-12-14T00:26:51.854Z,88.95
2022-12-14T00:29:19.349Z,90.50
2022-12-14T00:31:48.627Z,90.56
2022-12-14T00:34:16.657Z,88.30
2022-12-14T00:36:45.554Z,87.11
2022-12-14T00:39:13.075Z,90.38
2022-12-14T00:41:40.505Z,91.59
2022-12-14T00:44:08.009Z,92.20
2022-12-14T00:46:35.533Z,92.10
2022-12-14T00:49:02.961Z,91.88
2022-12-14T00:51:30.394Z,89.48
2022-12-14T00:53:57.803Z,87.84
2022-12-14T00:56:25.328Z,86.55
2022-12-14T00:58:54.422Z,90.00
2022-12-14T01:01:22.430Z,88.88
2022-12-14T01:03:50.359Z,90.86
2022-12-14T01:06:21.640Z,91.22
2022-12-14T01:08:49.964Z,92.16
2022-12-14T01:11:17.946Z,93.22
2022-12-14T01:13:49.317Z,92.76
2022-12-14T01:16:17.437Z,93.24
2022-12-14T01:18:45.436Z,93.19
2022-12-14T01:21:17.713Z,93.15
2022-12-14T01:23:46.751Z,92.64
2022-12-14T01:26:17.351Z,94.18
2022-12-14T01:28:46.878Z,94.25
2022-12-14T01:31:19.617Z,90.63
2022-12-14T01:33:48.872Z,90.17
2022-12-14T01:36:25.302Z,89.36
2022-12-14T01:38:56.808Z,88.29
2022-12-14T01:41:28.034Z,88.90
2022-12-14T01:43:57.763Z,90.17
2022-12-14T01:47:07.380Z,88.63
2022-12-14T01:49:46.019Z,91.39
2022-12-14T01:52:43.790Z,93.02
2022-12-14T01:55:21.810Z,92.86
2022-12-14T01:58:03.310Z,93.66
2022-12-14T02:00:31.623Z,93.44
2022-12-14T02:03:07.755Z,93.96
2022-12-14T02:05:39.630Z,93.20
2022-12-14T02:08:08.496Z,93.51
2022-12-14T02:10:36.687Z,91.42
2022-12-14T02:13:20.077Z,92.00
2022-12-14T02:15:48.695Z,91.54
2022-12-14T02:18:23.203Z,92.87
2022-12-14T02:21:46.223Z,93.67
2022-12-14T02:24:46.731Z,92.56
2022-12-14T02:27:38.409Z,92.36
2022-12-14T02:30:15.072Z,93.62
2022-12-14T02:32:49.004Z,93.86
2022-12-14T02:36:06.425Z,93.55
2022-12-14T02:38:53.234Z,92.94
2022-12-14T02:41:41.575Z,91.53
2022-12-14T02:44:37.889Z,91.87
2022-12-14T02:47:20.847Z,92.30
2022-12-14T02:50:49.163Z,92.99
2022-12-14T02:54:11.088Z,92.51
2022-12-14T02:56:49.148Z,92.32
2022-12-14T02:59:18.747Z,92.62
2022-12-14T03:01:48.806Z,93.22
2022-12-14T03:04:17.904Z,92.29
2022-12-14T03:07:00.849Z,90.12
2022-12-14T03:09:30.687Z,91.00
2022-12-14T03:12:09.364Z,92.03
2022-12-14T03:26:34.868Z,93.42
2022-12-14T03:29:22.044Z,93.09
2022-12-14T03:31:56.215Z,93.72
2022-12-14T03:34:36.453Z,93.99
2022-12-14T03:37:14.916Z,91.58
2022-12-14T03:39:44.304Z,92.36
2022-12-14T03:42:26.022Z,93.16
2022-12-14T03:45:22.416Z,92.49
2022-12-14T03:48:10.707Z,92.81
2022-12-14T03:51:13.110Z,92.97
2022-12-14T03:53:45.890Z,91.96
2022-12-14T03:56:35.055Z,92.39
2022-12-14T03:59:20.732Z,92.96
2022-12-14T04:02:04.753Z,92.09
2022-12-14T04:04:52.886Z,91.61
2022-12-14T04:08:20.792Z,91.88
2022-12-14T04:11:10.946Z,91.22
2022-12-14T04:14:16.507Z,91.30
2022-12-14T04:17:06.453Z,90.40
2022-12-14T04:20:14.269Z,90.18
2022-12-14T04:22:50.144Z,89.86
2022-12-14T04:25:44.737Z,89.95
2022-12-14T04:28:38.405Z,90.33
2022-12-14T04:31:12.345Z,90.37
2022-12-14T04:33:46.921Z,89.08
2022-12-14T04:36:28.411Z,87.67
2022-12-14T04:39:07.336Z,88.41
2022-12-14T04:41:44.171Z,89.20
2022-12-14T04:44:24.950Z,91.44
2022-12-14T04:46:54.908Z,92.58
2022-12-14T04:49:51.324Z,93.35
2022-12-14T04:52:34.375Z,93.48
2022-12-14T04:55:26.416Z,93.67
2022-12-14T04:58:12.566Z,94.43
2022-12-14T05:01:22.814Z,93.14
2022-12-14T05:04:15.596Z,94.17
2022-12-14T05:06:52.157Z,93.94
2022-12-14T05:09:50.379Z,94.28
2022-12-14T05:12:42.652Z,96.01
2022-12-14T05:15:23.732Z,96.34
2022-12-14T05:17:52.958Z,96.57
2022-12-14T05:20:27.389Z,96.00
2022-12-14T05:22:55.481Z,93.96
2022-12-14T05:25:23.346Z,94.56
2022-12-14T05:27:51.265Z,95.19
2022-12-14T05:30:19.301Z,96.13
2022-12-14T05:32:47.661Z,97.47
2022-12-14T05:35:16.532Z,98.15
2022-12-14T05:37:44.538Z,98.72
2022-12-14T05:40:13.235Z,99.71
2022-12-14T05:42:44.669Z,100.00
2022-12-14T05:45:16.094Z,99.77
2022-12-14T05:47:44.054Z,99.82
2022-12-14T05:50:12.641Z,98.42
2022-12-14T05:52:40.676Z,97.60
2022-12-14T05:55:09.913Z,97.51
2022-12-14T05:57:37.967Z,96.32
2022-12-14T06:00:07.138Z,95.99
2022-12-14T06:02:35.690Z,96.00
2022-12-14T06:05:04.235Z,97.09
2022-12-14T06:07:31.929Z,97.10
2022-12-14T06:10:00.090Z,95.65
2022-12-14T06:12:28.364Z,95.19
2022-12-14T06:14:56.613Z,94.22
2022-12-14T06:17:24.570Z,95.32
2022-12-14T06:19:52.979Z,96.37
2022-12-14T06:22:21.894Z,97.44
2022-12-14T06:24:50.051Z,97.34
2022-12-14T06:27:18.657Z,97.16
2022-12-14T06:29:46.900Z,96.51
2022-12-14T06:32:15.081Z,97.22
2022-12-14T06:34:44.521Z,97.19
2022-12-14T06:37:13.314Z,95.17
2022-12-14T06:39:42.144Z,96.60
2022-12-14T06:42:11.868Z,97.09
2022-12-14T06:44:40.799Z,97.35
2022-12-14T06:47:09.194Z,98.27
2022-12-14T06:49:37.567Z,95.17
2022-12-14T06:52:06.170Z,94.08
2022-12-14T06:54:34.433Z,91.83
2022-12-14T06:57:02.829Z,91.21
2022-12-14T06:59:31.051Z,90.75
2022-12-14T07:01:59.685Z,90.80
2022-12-14T07:04:28.253Z,88.84
2022-12-14T07:06:56.538Z,88.65
2022-12-14T07:09:24.740Z,90.14
2022-12-14T07:11:53.461Z,88.64
2022-12-14T07:14:21.614Z,92.05
2022-12-14T07:16:49.744Z,94.45
2022-12-14T07:19:19.210Z,91.30
2022-12-14T07:21:47.334Z,86.86
2022-12-14T07:24:16.067Z,87.40
2022-12-14T07:26:44.470Z,85.24
2022-12-14T07:29:14.907Z,85.35
2022-12-14T07:31:44.486Z,86.17
2022-12-14T07:34:18.316Z,85.49
2022-12-14T07:36:49.157Z,79.31
2022-12-14T07:39:17.639Z,80.11
2022-12-14T07:41:47.994Z,78.93
2022-12-14T07:44:21.583Z,76.81
2022-12-14T07:46:50.212Z,73.18
2022-12-14T07:49:18.009Z,70.43
2022-12-14T07:51:46.839Z,64.75
2022-12-14T07:54:15.574Z,63.79
2022-12-14T07:56:45.041Z,59.32
2022-12-14T07:59:18.778Z,58.84
2022-12-14T08:01:47.753Z,59.49
2022-12-14T08:04:19.499Z,60.02
2022-12-14T08:06:49.467Z,58.83
2022-12-14T08:09:19.319Z,55.49
2022-12-14T08:11:47.507Z,58.46
2022-12-14T08:14:19.008Z,60.18
2022-12-14T08:16:48.899Z,59.98
2022-12-14T08:19:18.105Z,59.99
2022-12-14T08:21:46.175Z,63.91
2022-12-14T08:24:14.587Z,59.74
2022-12-14T08:26:42.160Z,59.67
2022-12-14T08:29:15.437Z,60.54
2022-12-14T08:31:42.963Z,64.80
2022-12-14T08:34:10.497Z,62.43
2022-12-14T08:36:37.999Z,62.19
2022-12-14T08:39:10.313Z,61.19
2022-12-14T08:41:37.888Z,59.22
2022-12-14T08:44:06.289Z,61.23
2022-12-14T08:46:37.581Z,62.54
2022-12-14T08:49:05.341Z,63.31
2022-12-14T08:51:32.949Z,60.34
2022-12-14T08:54:00.420Z,58.33
2022-12-14T08:56:29.201Z,57.96
2022-12-14T08:58:57.707Z,57.73
2022-12-14T09:01:34.004Z,57.81
2022-12-14T09:04:09.119Z,59.64
2022-12-14T09:06:39.701Z,58.16
2022-12-14T09:09:15.656Z,58.06
2022-12-14T09:11:45.132Z,58.42
2022-12-14T09:14:13.078Z,60.21
2022-12-14T09:16:40.994Z,59.90
2022-12-14T09:19:08.620Z,60.27
2022-12-14T09:21:36.624Z,56.13
2022-12-14T09:24:05.354Z,57.34
2022-12-14T09:26:33.877Z,56.66
2022-12-14T09:29:01.463Z,56.16
2022-12-14T09:31:29.254Z,56.01
2022-12-14T09:33:57.022Z,57.14
2022-12-14T09:36:28.104Z,57.10
2022-12-14T09:38:57.709Z,59.60
2022-12-14T09:41:57.706Z,55.46
2022-12-14T09:44:43.962Z,52.31
2022-12-14T09:47:33.903Z,51.62
2022-12-14T09:50:16.057Z,47.47
2022-12-14T09:52:51.745Z,47.44
2022-12-14T09:55:43.470Z,47.86
2022-12-14T09:58:23.754Z,46.32
2022-12-14T10:01:24.869Z,49.94
2022-12-14T10:04:35.804Z,52.73
2022-12-14T10:07:57.085Z,51.36
2022-12-14T10:10:32.477Z,49.63
2022-12-14T10:13:42.707Z,48.65
2022-12-14T10:16:32.345Z,50.49
2022-12-14T10:19:41.281Z,49.11
2022-12-14T10:22:20.415Z,50.33
2022-12-14T10:25:17.716Z,49.28
2022-12-14T10:28:20.953Z,51.00
2022-12-14T10:30:51.265Z,53.59
2022-12-14T10:33:30.991Z,50.54
2022-12-14T10:36:21.069Z,51.10
2022-12-14T10:38:59.040Z,50.86
2022-12-14T10:41:37.425Z,49.59
2022-12-14T10:44:21.734Z,47.97
2022-12-14T10:47:05.965Z,49.81
2022-12-14T10:49:57.886Z,49.51
2022-12-14T10:52:36.116Z,49.01
2022-12-14T10:55:15.431Z,48.04
2022-12-14T10:57:42.974Z,45.59
2022-12-14T11:00:23.052Z,41.84
2022-12-14T11:02:56.126Z,42.06
2022-12-14T11:06:02.922Z,39.10
2022-12-14T11:08:47.865Z,39.07
2022-12-14T11:11:23.822Z,40.14
2022-12-14T11:14:07.837Z,40.89
2022-12-14T11:16:41.855Z,41.13
2022-12-14T11:19:19.365Z,42.60
2022-12-14T11:21:50.441Z,43.22
2022-12-14T11:24:27.556Z,43.45
2022-12-14T11:27:01.424Z,42.58
2022-12-14T11:29:39.435Z,40.73
2022-12-14T11:32:17.501Z,43.07
2022-12-14T11:34:44.952Z,43.85
2022-12-14T11:37:28.393Z,42.51
2022-12-14T11:40:01.190Z,42.67
2022-12-14T11:42:30.932Z,42.11
2022-12-14T11:45:26.122Z,39.79
2022-12-14T11:48:20.298Z,39.78
2022-12-14T11:50:50.385Z,37.85
2022-12-14T11:53:21.381Z,39.50
2022-12-14T11:56:14.985Z,40.64
2022-12-14T11:58:53.512Z,40.16
2022-12-14T12:01:26.324Z,41.37
2022-12-14T12:03:58.523Z,40.82
2022-12-14T12:06:29.472Z,40.22
2022-12-14T12:09:01.053Z,38.96
2022-12-14T12:11:32.867Z,39.24
2022-12-14T12:14:20.250Z,40.16
2022-12-14T12:16:48.494Z,39.94
2022-12-14T12:19:27.186Z,42.73
2022-12-14T12:21:56.500Z,44.61
2022-12-14T12:24:55.080Z,46.71
2022-12-14T12:27:27.488Z,45.17
2022-12-14T12:30:04.782Z,48.70
2022-12-14T12:32:37.728Z,48.25
2022-12-14T12:35:16.335Z,49.80
2022-12-14T12:37:50.951Z,47.06
2022-12-14T12:40:31.328Z,47.35
2022-12-14T12:43:38.390Z,48.73
2022-12-14T12:46:18.700Z,49.56
2022-12-14T12:48:55.214Z,50.92
2022-12-14T12:51:50.450Z,50.77
2022-12-14T12:54:40.844Z,50.28
2022-12-14T12:57:13.006Z,49.38
2022-12-14T12:59:51.279Z,48.77
2022-12-14T13:02:38.585Z,49.15
2022-12-14T13:05:45.147Z,49.96
2022-12-14T13:08:26.614Z,51.15
2022-12-14T13:11:25.154Z,51.57
2022-12-14T13:14:28.201Z,51.49
2022-12-14T13:16:57.043Z,52.00
2022-12-14T13:19:54.635Z,52.40
2022-12-14T13:22:34.535Z,52.78
2022-12-14T13:25:16.351Z,51.03
2022-12-14T13:28:16.059Z,53.09
2022-12-14T13:31:13.817Z,54.60
2022-12-14T13:33:55.069Z,54.39
2022-12-14T13:37:18.375Z,55.08
2022-12-14T13:40:13.640Z,53.90
2022-12-14T13:43:05.816Z,56.42
2022-12-14T13:45:44.947Z,57.08
2022-12-14T13:48:31.955Z,56.79
2022-12-14T13:51:23.499Z,57.76
2022-12-14T13:54:06.052Z,60.42
2022-12-14T13:56:38.437Z,59.12
2022-12-14T13:59:33.200Z,57.15
2022-12-14T14:02:03.314Z,57.74
2022-12-14T14:04:35.607Z,54.86
2022-12-14T14:07:25.033Z,53.14
2022-12-14T14:10:04.711Z,56.16
2022-12-14T14:12:39.456Z,56.52
2022-12-14T14:15:25.806Z,56.17
2022-12-14T14:17:55.913Z,57.44
2022-12-14T14:20:46.585Z,55.95
2022-12-14T14:23:16.829Z,55.83
2022-12-14T14:26:11.491Z,57.81
2022-12-14T14:28:39.371Z,61.47
2022-12-14T14:31:09.413Z,62.76
2022-12-14T14:33:48.878Z,61.97
2022-12-14T14:36:36.328Z,62.41
2022-12-14T14:39:55.438Z,62.08
2022-12-14T14:42:24.452Z,64.48
2022-12-14T14:45:01.774Z,66.45
2022-12-14T14:47:41.480Z,67.38
2022-12-14T14:50:27.061Z,68.20
2022-12-14T14:53:28.495Z,66.35
2022-12-14T14:56:05.985Z,68.41
2022-12-14T14:58:39.477Z,68.73
2022-12-14T15:01:25.339Z,70.47
2022-12-14T15:04:02.915Z,72.02
2022-12-14T15:06:39.814Z,71.51
2022-12-14T15:09:10.343Z,71.99
2022-12-14T15:11:52.298Z,72.98
2022-12-14T15:14:48.330Z,72.74
2022-12-14T15:17:22.990Z,73.13
2022-12-14T15:19:54.829Z,70.08
2022-12-14T15:22:42.169Z,65.21
2022-12-14T15:25:28.450Z,64.41
2022-12-14T15:28:06.076Z,65.68
2022-12-14T15:30:34.697Z,66.65
2022-12-14T15:33:08.073Z,68.50
2022-12-14T15:35:39.722Z,69.67
2022-12-14T15:38:24.851Z,69.82
2022-12-14T15:41:03.472Z,67.33
2022-12-14T15:43:31.996Z,70.63
2022-12-14T15:46:04.804Z,72.41
2022-12-14T15:48:35.091Z,73.02
2022-12-14T15:51:10.339Z,73.34
2022-12-14T15:53:50.886Z,75.07
2022-12-14T15:56:37.983Z,75.63
2022-12-14T15:59:24.525Z,74.83
2022-12-14T16:02:27.271Z,76.70
2022-12-14T16:04:57.214Z,76.38
2022-12-14T16:07:38.483Z,76.58
2022-12-14T16:10:25.941Z,78.43
2022-12-14T16:13:02.676Z,78.24
2022-12-14T16:15:31.866Z,79.29
2022-12-14T16:18:03.411Z,77.68
2022-12-14T16:20:37.811Z,78.64
2022-12-14T16:23:14.502Z,78.41
2022-12-14T16:26:16.815Z,79.08
2022-12-14T16:28:44.367Z,76.65
2022-12-14T16:31:25.541Z,77.08
2022-12-14T16:34:19.166Z,79.01
2022-12-14T16:39:49.927Z,77.95
2022-12-14T16:42:26.406Z,80.06
2022-12-14T16:44:55.719Z,80.35
2022-12-14T16:48:00.208Z,80.49
2022-12-14T16:50:54.989Z,82.37
2022-12-14T16:53:34.166Z,80.60
2022-12-14T16:56:06.554Z,80.69
2022-12-14T16:58:40.867Z,78.99
2022-12-14T17:01:11.176Z,80.42
2022-12-14T17:03:40.177Z,80.59
2022-12-14T17:06:16.450Z,81.36
2022-12-14T17:08:45.388Z,82.04
2022-12-14T17:11:14.528Z,82.31
2022-12-14T17:13:42.912Z,81.52
2022-12-14T17:16:21.013Z,80.68
2022-12-14T17:18:49.671Z,80.14
2022-12-14T17:21:28.796Z,80.76
2022-12-14T17:23:57.530Z,81.91
2022-12-14T17:26:30.850Z,82.31
2022-12-14T17:28:58.698Z,83.26
2022-12-14T17:31:29.595Z,84.24
2022-12-14T17:33:58.315Z,85.55
2022-12-14T17:36:25.874Z,85.39
2022-12-14T17:38:53.339Z,86.61
2022-12-14T17:41:26.249Z,86.96
2022-12-14T17:43:57.932Z,86.95
2022-12-14T17:46:27.031Z,86.86
2022-12-14T17:48:54.628Z,86.50
2022-12-14T17:51:27.521Z,86.62
2022-12-14T17:54:28.806Z,87.37
2022-12-14T17:57:15.917Z,86.85
2022-12-14T17:59:47.798Z,87.55
2022-12-14T18:02:36.118Z,86.10
2022-12-14T18:05:04.837Z,85.75
2022-12-14T18:07:32.340Z,85.51
2022-12-14T18:09:59.855Z,83.77
2022-12-14T18:12:27.433Z,82.39
2022-12-14T18:14:55.400Z,82.90
2022-12-14T18:17:25.082Z,82.54
2022-12-14T18:19:52.599Z,82.20
2022-12-14T18:22:21.363Z,81.05
2022-12-14T18:24:49.394Z,80.22
2022-12-14T18:27:17.205Z,81.24
2022-12-14T18:29:44.846Z,82.77
2022-12-14T18:32:15.505Z,84.44
2022-12-14T18:34:43.156Z,85.79
2022-12-14T18:37:11.323Z,84.62
2022-12-14T18:39:39.253Z,86.69
2022-12-14T18:42:07.718Z,87.80
2022-12-14T18:44:35.949Z,88.34
2022-12-14T18:47:33.199Z,88.92
2022-12-14T18:49:53.260Z,89.48
2022-12-14T18:52:20.972Z,90.51
2022-12-14T18:54:54.468Z,91.75
2022-12-14T18:57:24.458Z,92.37
2022-12-14T18:59:55.758Z,89.83
2022-12-14T19:02:26.909Z,85.79
2022-12-14T19:04:56.369Z,86.37
2022-12-14T19:07:24.429Z,84.40
2022-12-14T19:09:52.567Z,84.74
2022-12-14T19:12:23.267Z,85.55
2022-12-14T19:14:57.029Z,87.04
2022-12-14T19:17:24.851Z,88.49
2022-12-14T19:19:53.080Z,88.18
2022-12-14T19:22:22.377Z,86.40
2022-12-14T19:24:52.599Z,85.83
2022-12-14T19:27:43.919Z,85.42
2022-12-14T19:30:14.210Z,85.29
2022-12-14T19:32:42.194Z,84.74
2022-12-14T19:35:11.460Z,85.17
2022-12-14T19:37:39.139Z,87.48
2022-12-14T19:40:13.341Z,88.38
2022-12-14T19:42:41.566Z,89.09
2022-12-14T19:45:11.128Z,91.03
2022-12-14T19:47:38.880Z,92.54
2022-12-14T19:50:08.070Z,93.30
2022-12-14T19:52:35.933Z,94.90
2022-12-14T19:55:04.728Z,95.32
2022-12-14T19:57:35.381Z,95.11
2022-12-14T20:00:03.218Z,96.85
2022-12-14T20:02:38.493Z,98.06
2022-12-14T20:05:08.675Z,98.73
2022-12-14T20:07:41.980Z,99.33
2022-12-14T20:10:12.267Z,100.00
2022-12-14T20:12:40.071Z,100.00
2022-12-14T20:15:09.091Z,100.00
2022-12-14T20:17:39.097Z,100.00
2022-12-14T20:20:07.717Z,100.00
2022-12-14T20:22:35.401Z,100.00
2022-12-14T20:25:03.508Z,100.00
2022-12-14T20:27:33.786Z,100.00
2022-12-14T20:30:09.960Z,100.00
2022-12-14T20:32:41.464Z,100.00
2022-12-14T20:35:12.180Z,100.00
2022-12-14T20:37:45.296Z,100.00
2022-12-14T20:40:39.496Z,100.00
2022-12-14T20:43:12.566Z,100.00
2022-12-14T20:45:44.432Z,100.00
2022-12-14T20:48:18.392Z,100.00
2022-12-14T20:50:50.521Z,100.00
2022-12-14T20:53:22.942Z,100.00
2022-12-14T20:55:51.954Z,100.00
2022-12-14T20:58:24.676Z,100.00
2022-12-14T21:00:53.585Z,100.00
2022-12-14T21:03:24.080Z,100.00
2022-12-14T21:05:53.958Z,100.00
2022-12-14T21:08:21.919Z,100.00
2022-12-14T21:10:49.440Z,100.00
2022-12-14T21:13:17.000Z,100.00
2022-12-14T21:15:45.475Z,100.00
2022-12-14T21:18:12.979Z,100.00
2022-12-14T21:20:40.458Z,100.00
2022-12-14T21:23:07.972Z,98.84
2022-12-14T21:25:35.466Z,98.85
2022-12-14T21:28:03.071Z,100.00
2022-12-14T21:30:30.508Z,100.00
2022-12-14T21:32:58.743Z,100.00
2022-12-14T21:35:26.151Z,100.00
2022-12-14T21:37:55.037Z,100.00
2022-12-14T21:40:40.828Z,100.00
2022-12-14T21:43:08.570Z,100.00
2022-12-14T21:45:36.572Z,100.00
2022-12-14T21:48:04.276Z,100.00
2022-12-14T21:50:32.132Z,100.00
2022-12-14T21:53:01.824Z,100.00
2022-12-14T21:55:29.287Z,100.00
2022-12-14T21:58:16.832Z,100.00
2022-12-14T22:00:47.112Z,100.00
2022-12-14T22:03:14.992Z,100.00
2022-12-14T22:05:43.470Z,100.00
2022-12-14T22:08:10.925Z,100.00
2022-12-14T22:10:38.409Z,99.67
2022-12-14T22:13:06.028Z,100.00
2022-12-14T22:15:33.481Z,100.00
2022-12-14T22:18:01.030Z,100.00
2022-12-14T22:20:28.431Z,98.93
2022-12-14T22:23:00.099Z,99.86
2022-12-14T22:25:27.710Z,100.00
2022-12-14T22:27:55.166Z,100.00
2022-12-14T22:30:27.130Z,100.00
2022-12-14T22:32:58.281Z,100.00
2022-12-14T22:35:25.858Z,100.00
2022-12-14T22:37:53.350Z,100.00
2022-12-14T22:40:21.982Z,99.21
2022-12-14T22:42:49.454Z,100.00
2022-12-14T22:45:17.127Z,100.00
2022-12-14T22:47:44.606Z,100.00
2022-12-14T22:50:12.262Z,100.00
2022-12-14T22:52:40.407Z,100.00
2022-12-14T22:55:10.954Z,100.00
2022-12-14T22:57:43.166Z,100.00
2022-12-14T23:00:17.131Z,100.00
2022-12-14T23:02:48.080Z,100.00
2022-12-14T23:05:18.026Z,99.55
2022-12-14T23:07:45.813Z,100.00
2022-12-14T23:10:31.759Z,100.00
2022-12-14T23:13:17.695Z,100.00
2022-12-14T23:16:04.019Z,100.00
2022-12-14T23:18:50.219Z,100.00
2022-12-14T23:21:36.226Z,100.00
2022-12-14T23:24:22.647Z,100.00
2022-12-14T23:27:09.947Z,100.00
2022-12-14T23:29:56.450Z,100.00
2022-12-14T23:32:42.767Z,100.00
2022-12-14T23:35:28.535Z,100.00
2022-12-14T23:38:14.739Z,100.00
2022-12-14T23:41:00.858Z,100.00
2022-12-14T23:43:46.733Z,100.00
2022-12-14T23:46:33.161Z,100.00
2022-12-14T23:49:19.406Z,100.00
2022-12-14T23:52:08.246Z,100.00
2022-12-14T23:54:54.137Z,100.00
2022-12-14T23:57:40.358Z,100.00
